sensor_id;sensor_type;location;lat;lon;timestamp;pressure;altitude;pressure_sealevel;temperature;humidity
36502;BME280;25393;46.108;3.390;2022-07-29T00:02:25;97812.81;;;20.01;53.69
36502;BME280;25393;46.108;3.390;2022-07-29T00:04:52;97839.84;;;20.17;53.70
36502;BME280;25393;46.108;3.390;2022-07-29T00:07:19;97842.06;;;20.20;53.99
36502;BME280;25393;46.108;3.390;2022-07-29T00:09:45;97848.78;;;20.29;54.06
36502;BME280;25393;46.108;3.390;2022-07-29T00:12:18;97845.25;;;20.29;54.03
36502;BME280;25393;46.108;3.390;2022-07-29T00:14:55;97816.44;;;20.18;54.28
36502;BME280;25393;46.108;3.390;2022-07-29T00:17:25;97809.31;;;20.12;54.30
36502;BME280;25393;46.108;3.390;2022-07-29T00:19:52;97792.69;;;20.03;54.51
36502;BME280;25393;46.108;3.390;2022-07-29T00:22:19;97803.59;;;20.08;54.56
36502;BME280;25393;46.108;3.390;2022-07-29T00:24:48;97804.06;;;20.05;54.21
36502;BME280;25393;46.108;3.390;2022-07-29T00:27:16;97810.00;;;19.95;54.99
36502;BME280;25393;46.108;3.390;2022-07-29T00:29:43;97798.44;;;19.83;54.94
36502;BME280;25393;46.108;3.390;2022-07-29T00:32:09;97822.75;;;20.00;54.93
36502;BME280;25393;46.108;3.390;2022-07-29T00:34:36;97788.94;;;19.81;55.10
36502;BME280;25393;46.108;3.390;2022-07-29T00:37:22;97813.03;;;19.99;55.35
36502;BME280;25393;46.108;3.390;2022-07-29T00:39:48;97801.13;;;19.95;55.46
36502;BME280;25393;46.108;3.390;2022-07-29T00:42:16;97810.00;;;19.95;55.22
36502;BME280;25393;46.108;3.390;2022-07-29T00:44:43;97812.34;;;19.92;55.93
36502;BME280;25393;46.108;3.390;2022-07-29T00:47:10;97819.16;;;19.94;55.90
36502;BME280;25393;46.108;3.390;2022-07-29T00:49:39;97793.97;;;19.77;55.58
36502;BME280;25393;46.108;3.390;2022-07-29T00:52:08;97810.72;;;19.79;55.34
36502;BME280;25393;46.108;3.390;2022-07-29T00:54:35;97804.84;;;19.71;55.39
36502;BME280;25393;46.108;3.390;2022-07-29T00:57:10;97764.50;;;19.48;55.51
36502;BME280;25393;46.108;3.390;2022-07-29T00:59:37;97792.13;;;19.66;55.96
36502;BME280;25393;46.108;3.390;2022-07-29T01:02:04;97802.97;;;19.71;55.54
36502;BME280;25393;46.108;3.390;2022-07-29T01:04:31;97799.38;;;19.66;55.75
36502;BME280;25393;46.108;3.390;2022-07-29T01:07:00;97766.31;;;19.35;56.13
36502;BME280;25393;46.108;3.390;2022-07-29T01:09:29;97782.22;;;19.37;56.86
36502;BME280;25393;46.108;3.390;2022-07-29T01:12:18;97792.97;;;19.37;57.45
36502;BME280;25393;46.108;3.390;2022-07-29T01:14:46;97802.25;;;19.41;57.57
36502;BME280;25393;46.108;3.390;2022-07-29T01:20:02;97787.81;;;19.35;57.50
36502;BME280;25393;46.108;3.390;2022-07-29T01:23:08;97789.75;;;19.47;57.40
36502;BME280;25393;46.108;3.390;2022-07-29T01:29:01;97771.78;;;19.29;57.57
36502;BME280;25393;46.108;3.390;2022-07-29T01:37:12;97794.38;;;19.39;57.84
36502;BME280;25393;46.108;3.390;2022-07-29T01:39:42;97782.06;;;19.32;57.89
36502;BME280;25393;46.108;3.390;2022-07-29T01:42:18;97795.56;;;19.43;57.81
36502;BME280;25393;46.108;3.390;2022-07-29T01:45:00;97804.00;;;19.47;57.37
36502;BME280;25393;46.108;3.390;2022-07-29T01:47:33;97777.53;;;19.32;57.57
36502;BME280;25393;46.108;3.390;2022-07-29T01:50:07;97789.00;;;19.39;57.57
36502;BME280;25393;46.108;3.390;2022-07-29T01:52:42;97786.56;;;19.38;57.83
36502;BME280;25393;46.108;3.390;2022-07-29T01:55:13;97765.50;;;19.23;57.79
36502;BME280;25393;46.108;3.390;2022-07-29T01:57:43;97779.03;;;19.28;57.52
36502;BME280;25393;46.108;3.390;2022-07-29T02:00:11;97780.22;;;19.32;57.85
36502;BME280;25393;46.108;3.390;2022-07-29T02:02:41;97765.25;;;19.25;57.69
36502;BME280;25393;46.108;3.390;2022-07-29T02:05:11;97782.19;;;19.25;57.77
36502;BME280;25393;46.108;3.390;2022-07-29T02:07:40;97800.63;;;19.22;57.88
36502;BME280;25393;46.108;3.390;2022-07-29T02:10:09;97800.72;;;19.15;58.25
36502;BME280;25393;46.108;3.390;2022-07-29T02:12:37;97767.97;;;18.95;58.43
36502;BME280;25393;46.108;3.390;2022-07-29T02:15:06;97773.09;;;18.96;58.57
36502;BME280;25393;46.108;3.390;2022-07-29T02:17:41;97798.50;;;19.12;58.71
36502;BME280;25393;46.108;3.390;2022-07-29T02:20:11;97812.09;;;19.17;59.08
36502;BME280;25393;46.108;3.390;2022-07-29T02:22:39;97793.91;;;19.01;59.94
36502;BME280;25393;46.108;3.390;2022-07-29T02:25:08;97772.25;;;18.84;60.54
36502;BME280;25393;46.108;3.390;2022-07-29T02:27:40;97804.34;;;19.09;61.14
36502;BME280;25393;46.108;3.390;2022-07-29T02:30:09;97767.69;;;18.85;61.45
36502;BME280;25393;46.108;3.390;2022-07-29T02:32:38;97785.06;;;18.82;61.55
36502;BME280;25393;46.108;3.390;2022-07-29T02:35:08;97816.16;;;18.90;61.47
36502;BME280;25393;46.108;3.390;2022-07-29T02:37:36;97816.59;;;18.87;61.62
36502;BME280;25393;46.108;3.390;2022-07-29T02:40:04;97778.84;;;18.70;61.54
36502;BME280;25393;46.108;3.390;2022-07-29T02:42:33;97776.88;;;18.77;61.41
36502;BME280;25393;46.108;3.390;2022-07-29T02:45:03;97819.84;;;19.07;61.17
36502;BME280;25393;46.108;3.390;2022-07-29T02:47:42;97814.53;;;19.19;61.14
36502;BME280;25393;46.108;3.390;2022-07-29T02:50:15;97802.94;;;19.07;60.66
36502;BME280;25393;46.108;3.390;2022-07-29T02:52:47;97803.28;;;19.10;60.32
36502;BME280;25393;46.108;3.390;2022-07-29T02:55:27;97819.31;;;19.28;60.55
36502;BME280;25393;46.108;3.390;2022-07-29T02:58:06;97802.94;;;19.18;61.25
36502;BME280;25393;46.108;3.390;2022-07-29T03:00:37;97812.25;;;19.34;60.98
36502;BME280;25393;46.108;3.390;2022-07-29T03:03:09;97811.88;;;19.30;61.13
36502;BME280;25393;46.108;3.390;2022-07-29T03:05:37;97793.28;;;19.17;60.52
36502;BME280;25393;46.108;3.390;2022-07-29T03:08:05;97813.16;;;19.28;59.78
36502;BME280;25393;46.108;3.390;2022-07-29T03:10:33;97821.47;;;19.38;60.06
36502;BME280;25393;46.108;3.390;2022-07-29T03:13:01;97805.31;;;19.26;59.81
36502;BME280;25393;46.108;3.390;2022-07-29T03:15:28;97793.84;;;19.19;59.54
36502;BME280;25393;46.108;3.390;2022-07-29T03:17:56;97830.59;;;19.37;59.28
36502;BME280;25393;46.108;3.390;2022-07-29T03:20:25;97787.97;;;19.11;59.35
36502;BME280;25393;46.108;3.390;2022-07-29T03:22:52;97796.53;;;19.19;59.76
36502;BME280;25393;46.108;3.390;2022-07-29T03:25:19;97809.50;;;19.22;60.08
36502;BME280;25393;46.108;3.390;2022-07-29T03:27:47;97816.66;;;19.28;60.33
36502;BME280;25393;46.108;3.390;2022-07-29T03:30:15;97813.38;;;19.26;60.20
36502;BME280;25393;46.108;3.390;2022-07-29T03:32:48;97821.75;;;19.18;60.90
36502;BME280;25393;46.108;3.390;2022-07-29T03:35:20;97815.44;;;19.13;61.05
36502;BME280;25393;46.108;3.390;2022-07-29T03:37:47;97813.78;;;19.12;60.21
36502;BME280;25393;46.108;3.390;2022-07-29T03:40:21;97827.38;;;19.17;59.93
36502;BME280;25393;46.108;3.390;2022-07-29T03:42:49;97839.84;;;19.11;60.49
36502;BME280;25393;46.108;3.390;2022-07-29T03:45:18;97831.81;;;18.93;61.21
36502;BME280;25393;46.108;3.390;2022-07-29T03:47:48;97815.06;;;18.79;62.12
36502;BME280;25393;46.108;3.390;2022-07-29T03:50:22;97856.03;;;19.05;62.26
36502;BME280;25393;46.108;3.390;2022-07-29T03:52:49;97858.72;;;19.05;62.55
36502;BME280;25393;46.108;3.390;2022-07-29T03:55:16;97830.28;;;18.85;62.47
36502;BME280;25393;46.108;3.390;2022-07-29T03:57:44;97860.84;;;19.03;62.46
36502;BME280;25393;46.108;3.390;2022-07-29T04:00:12;97843.53;;;18.99;62.63
36502;BME280;25393;46.108;3.390;2022-07-29T04:02:40;97854.75;;;19.07;63.05
36502;BME280;25393;46.108;3.390;2022-07-29T04:05:12;97844.75;;;19.14;63.43
36502;BME280;25393;46.108;3.390;2022-07-29T04:07:39;97813.63;;;18.95;63.27
36502;BME280;25393;46.108;3.390;2022-07-29T04:10:06;97835.06;;;19.13;61.95
36502;BME280;25393;46.108;3.390;2022-07-29T04:12:34;97834.34;;;19.06;61.49
36502;BME280;25393;46.108;3.390;2022-07-29T04:15:05;97824.00;;;18.91;61.85
36502;BME280;25393;46.108;3.390;2022-07-29T04:17:32;97815.13;;;18.91;62.83
36502;BME280;25393;46.108;3.390;2022-07-29T04:19:58;97826.38;;;19.00;62.77
36502;BME280;25393;46.108;3.390;2022-07-29T04:22:25;97817.13;;;18.95;62.37
36502;BME280;25393;46.108;3.390;2022-07-29T04:24:52;97833.97;;;19.03;62.41
36502;BME280;25393;46.108;3.390;2022-07-29T04:27:19;97845.28;;;19.05;62.83
36502;BME280;25393;46.108;3.390;2022-07-29T04:29:46;97833.63;;;19.11;63.23
36502;BME280;25393;46.108;3.390;2022-07-29T04:32:23;97821.88;;;18.93;63.67
36502;BME280;25393;46.108;3.390;2022-07-29T04:34:50;97822.44;;;18.84;63.97
36502;BME280;25393;46.108;3.390;2022-07-29T04:37:17;97839.50;;;18.89;64.32
36502;BME280;25393;46.108;3.390;2022-07-29T04:39:44;97826.13;;;18.71;64.17
36502;BME280;25393;46.108;3.390;2022-07-29T04:42:11;97851.16;;;18.83;64.17
36502;BME280;25393;46.108;3.390;2022-07-29T04:44:38;97849.28;;;18.84;68.82
36502;BME280;25393;46.108;3.390;2022-07-29T04:47:08;97871.97;;;19.18;70.03
36502;BME280;25393;46.108;3.390;2022-07-29T04:49:38;97865.63;;;19.30;66.78
36502;BME280;25393;46.108;3.390;2022-07-29T04:52:05;97873.75;;;19.42;64.61
36502;BME280;25393;46.108;3.390;2022-07-29T04:54:32;97877.25;;;19.42;63.32
36502;BME280;25393;46.108;3.390;2022-07-29T04:56:59;97883.81;;;19.47;63.92
36502;BME280;25393;46.108;3.390;2022-07-29T04:59:26;97883.13;;;19.51;63.61
36502;BME280;25393;46.108;3.390;2022-07-29T05:01:53;97879.31;;;19.40;63.33
36502;BME280;25393;46.108;3.390;2022-07-29T05:04:20;97874.81;;;19.23;63.75
36502;BME280;25393;46.108;3.390;2022-07-29T05:06:47;97892.13;;;19.27;63.93
36502;BME280;25393;46.108;3.390;2022-07-29T05:09:14;97878.31;;;19.23;64.20
36502;BME280;25393;46.108;3.390;2022-07-29T05:11:41;97877.13;;;19.19;63.75
36502;BME280;25393;46.108;3.390;2022-07-29T05:14:09;97891.84;;;19.17;64.19
36502;BME280;25393;46.108;3.390;2022-07-29T05:16:36;97876.97;;;19.14;64.31
36502;BME280;25393;46.108;3.390;2022-07-29T05:19:03;97885.56;;;19.23;64.65
36502;BME280;25393;46.108;3.390;2022-07-29T05:21:31;97868.69;;;19.16;64.89
36502;BME280;25393;46.108;3.390;2022-07-29T05:23:58;97873.97;;;19.22;64.92
36502;BME280;25393;46.108;3.390;2022-07-29T05:26:25;97875.75;;;19.28;65.66
36502;BME280;25393;46.108;3.390;2022-07-29T05:28:52;97883.75;;;19.35;65.48
36502;BME280;25393;46.108;3.390;2022-07-29T05:31:20;97879.06;;;19.30;66.33
36502;BME280;25393;46.108;3.390;2022-07-29T05:33:47;97858.53;;;19.18;65.92
36502;BME280;25393;46.108;3.390;2022-07-29T05:36:14;97892.56;;;19.24;65.86
36502;BME280;25393;46.108;3.390;2022-07-29T05:38:41;97881.31;;;19.15;66.08
36502;BME280;25393;46.108;3.390;2022-07-29T05:41:08;97894.44;;;19.23;66.42
36502;BME280;25393;46.108;3.390;2022-07-29T05:43:35;97899.50;;;19.31;66.00
36502;BME280;25393;46.108;3.390;2022-07-29T05:46:02;97890.09;;;19.22;65.90
36502;BME280;25393;46.108;3.390;2022-07-29T05:48:29;97903.84;;;19.14;66.70
36502;BME280;25393;46.108;3.390;2022-07-29T05:50:56;97892.44;;;19.01;67.16
36502;BME280;25393;46.108;3.390;2022-07-29T05:53:23;97896.88;;;18.95;67.56
36502;BME280;25393;46.108;3.390;2022-07-29T05:55:50;97929.00;;;19.02;68.10
36502;BME280;25393;46.108;3.390;2022-07-29T05:58:18;97911.03;;;18.84;68.37
36502;BME280;25393;46.108;3.390;2022-07-29T06:00:45;97931.03;;;19.06;69.43
36502;BME280;25393;46.108;3.390;2022-07-29T06:03:12;97912.72;;;18.96;71.26
36502;BME280;25393;46.108;3.390;2022-07-29T06:05:39;97902.91;;;18.90;72.86
36502;BME280;25393;46.108;3.390;2022-07-29T06:08:05;97908.28;;;18.90;75.00
36502;BME280;25393;46.108;3.390;2022-07-29T06:10:36;97900.00;;;18.92;76.27
36502;BME280;25393;46.108;3.390;2022-07-29T06:13:03;97926.59;;;19.12;77.22
36502;BME280;25393;46.108;3.390;2022-07-29T06:15:29;97918.72;;;19.17;78.65
36502;BME280;25393;46.108;3.390;2022-07-29T06:17:56;97912.69;;;19.33;80.37
36502;BME280;25393;46.108;3.390;2022-07-29T06:20:27;97903.13;;;19.37;80.80
36502;BME280;25393;46.108;3.390;2022-07-29T06:22:56;97909.56;;;19.36;79.91
36502;BME280;25393;46.108;3.390;2022-07-29T06:25:23;97905.84;;;19.19;80.82
36502;BME280;25393;46.108;3.390;2022-07-29T06:27:50;97916.69;;;19.12;80.35
36502;BME280;25393;46.108;3.390;2022-07-29T06:30:17;97914.84;;;18.94;80.68
36502;BME280;25393;46.108;3.390;2022-07-29T06:32:45;97918.06;;;18.85;80.61
36502;BME280;25393;46.108;3.390;2022-07-29T06:35:12;97903.66;;;18.79;80.23
36502;BME280;25393;46.108;3.390;2022-07-29T06:37:59;97920.50;;;18.86;80.51
36502;BME280;25393;46.108;3.390;2022-07-29T06:40:26;97902.03;;;18.78;80.60
36502;BME280;25393;46.108;3.390;2022-07-29T06:43:14;97917.16;;;18.91;80.96
36502;BME280;25393;46.108;3.390;2022-07-29T06:45:41;97906.56;;;18.96;81.56
36502;BME280;25393;46.108;3.390;2022-07-29T06:48:09;97916.84;;;19.17;80.35
36502;BME280;25393;46.108;3.390;2022-07-29T06:50:36;97908.16;;;19.33;79.73
36502;BME280;25393;46.108;3.390;2022-07-29T06:53:03;97917.84;;;19.53;79.63
36502;BME280;25393;46.108;3.390;2022-07-29T06:55:30;97932.53;;;19.80;79.16
36502;BME280;25393;46.108;3.390;2022-07-29T06:57:59;97933.03;;;20.00;77.49
36502;BME280;25393;46.108;3.390;2022-07-29T07:00:26;97940.00;;;20.19;75.83
36502;BME280;25393;46.108;3.390;2022-07-29T07:02:52;97932.66;;;20.38;74.57
36502;BME280;25393;46.108;3.390;2022-07-29T07:05:19;97931.00;;;20.60;72.92
36502;BME280;25393;46.108;3.390;2022-07-29T07:07:46;97921.03;;;20.72;70.88
36502;BME280;25393;46.108;3.390;2022-07-29T07:10:13;97942.66;;;21.01;68.77
36502;BME280;25393;46.108;3.390;2022-07-29T07:12:40;97922.75;;;21.13;71.37
36502;BME280;25393;46.108;3.390;2022-07-29T07:15:07;97929.72;;;21.37;73.35
36502;BME280;25393;46.108;3.390;2022-07-29T07:17:34;97925.66;;;21.52;74.03
36502;BME280;25393;46.108;3.390;2022-07-29T07:20:00;97882.84;;;21.38;72.99
36502;BME280;25393;46.108;3.390;2022-07-29T07:22:27;97884.84;;;21.31;72.15
36502;BME280;25393;46.108;3.390;2022-07-29T07:25:04;97931.63;;;21.25;71.11
36502;BME280;25393;46.108;3.390;2022-07-29T07:27:31;97938.44;;;21.16;70.70
36502;BME280;25393;46.108;3.390;2022-07-29T07:29:57;97933.53;;;21.02;70.02
36502;BME280;25393;46.108;3.390;2022-07-29T07:32:24;97945.97;;;21.14;69.86
36502;BME280;25393;46.108;3.390;2022-07-29T07:34:51;97936.91;;;21.20;68.04
36502;BME280;25393;46.108;3.390;2022-07-29T07:37:18;97939.59;;;21.32;66.21
36502;BME280;25393;46.108;3.390;2022-07-29T07:39:46;97958.38;;;21.55;65.45
36502;BME280;25393;46.108;3.390;2022-07-29T07:42:13;97952.34;;;21.65;68.94
36502;BME280;25393;46.108;3.390;2022-07-29T07:44:40;97967.84;;;21.86;70.70
36502;BME280;25393;46.108;3.390;2022-07-29T07:47:27;97963.09;;;22.05;70.94
36502;BME280;25393;46.108;3.390;2022-07-29T07:49:54;97949.25;;;22.01;70.58
36502;BME280;25393;46.108;3.390;2022-07-29T07:52:21;97957.75;;;22.10;69.42
36502;BME280;25393;46.108;3.390;2022-07-29T07:54:48;97964.75;;;22.22;69.12
36502;BME280;25393;46.108;3.390;2022-07-29T07:57:16;97960.88;;;22.18;68.03
36502;BME280;25393;46.108;3.390;2022-07-29T07:59:43;97980.03;;;22.50;66.88
36502;BME280;25393;46.108;3.390;2022-07-29T08:02:09;97977.00;;;22.63;63.44
36502;BME280;25393;46.108;3.390;2022-07-29T08:04:36;97980.03;;;22.67;59.62
36502;BME280;25393;46.108;3.390;2022-07-29T08:07:03;97972.25;;;22.70;61.33
36502;BME280;25393;46.108;3.390;2022-07-29T08:09:30;97975.19;;;22.85;61.36
36502;BME280;25393;46.108;3.390;2022-07-29T08:11:57;97971.91;;;23.00;62.35
36502;BME280;25393;46.108;3.390;2022-07-29T08:14:25;97965.09;;;23.19;63.37
36502;BME280;25393;46.108;3.390;2022-07-29T08:16:52;97946.81;;;23.26;61.25
36502;BME280;25393;46.108;3.390;2022-07-29T08:19:19;97959.50;;;23.43;60.13
36502;BME280;25393;46.108;3.390;2022-07-29T08:21:45;97957.84;;;23.42;58.50
36502;BME280;25393;46.108;3.390;2022-07-29T08:24:12;97975.97;;;23.41;55.78
36502;BME280;25393;46.108;3.390;2022-07-29T08:26:58;97946.63;;;23.33;55.89
36502;BME280;25393;46.108;3.390;2022-07-29T08:29:51;97958.72;;;23.47;56.37
36502;BME280;25393;46.108;3.390;2022-07-29T08:32:18;97961.28;;;23.59;55.48
36502;BME280;25393;46.108;3.390;2022-07-29T08:35:07;97978.41;;;23.91;55.89
36502;BME280;25393;46.108;3.390;2022-07-29T08:37:35;97965.50;;;23.98;54.82
36502;BME280;25393;46.108;3.390;2022-07-29T08:40:02;97989.13;;;24.08;53.93
36502;BME280;25393;46.108;3.390;2022-07-29T08:42:30;97970.84;;;23.93;54.14
36502;BME280;25393;46.108;3.390;2022-07-29T08:44:57;97973.03;;;23.96;54.51
36502;BME280;25393;46.108;3.390;2022-07-29T08:47:25;97973.56;;;23.93;54.72
36502;BME280;25393;46.108;3.390;2022-07-29T08:49:54;97970.34;;;23.96;54.99
36502;BME280;25393;46.108;3.390;2022-07-29T08:52:25;97974.16;;;24.00;55.46
36502;BME280;25393;46.108;3.390;2022-07-29T08:54:53;97958.19;;;23.99;53.69
36502;BME280;25393;46.108;3.390;2022-07-29T08:57:21;97961.25;;;24.07;53.75
36502;BME280;25393;46.108;3.390;2022-07-29T08:59:50;97961.81;;;24.09;54.02
36502;BME280;25393;46.108;3.390;2022-07-29T09:02:19;97958.66;;;24.17;54.08
36502;BME280;25393;46.108;3.390;2022-07-29T09:04:47;97941.63;;;24.17;53.90
36502;BME280;25393;46.108;3.390;2022-07-29T09:07:20;97951.44;;;24.28;54.03
36502;BME280;25393;46.108;3.390;2022-07-29T09:09:47;97939.91;;;24.43;54.09
36502;BME280;25393;46.108;3.390;2022-07-29T09:12:14;97957.97;;;24.69;55.05
36502;BME280;25393;46.108;3.390;2022-07-29T09:14:55;97949.91;;;24.79;55.01
36502;BME280;25393;46.108;3.390;2022-07-29T09:17:48;97949.00;;;25.05;54.10
36502;BME280;25393;46.108;3.390;2022-07-29T09:20:20;97958.34;;;25.29;53.30
36502;BME280;25393;46.108;3.390;2022-07-29T09:22:52;97955.25;;;25.58;51.61
36502;BME280;25393;46.108;3.390;2022-07-29T09:25:36;97956.31;;;25.57;51.70
36502;BME280;25393;46.108;3.390;2022-07-29T09:28:11;97963.13;;;25.69;51.19
36502;BME280;25393;46.108;3.390;2022-07-29T09:30:56;97963.19;;;25.95;50.33
36502;BME280;25393;46.108;3.390;2022-07-29T09:33:31;97971.94;;;26.37;49.24
36502;BME280;25393;46.108;3.390;2022-07-29T09:36:06;97973.72;;;27.27;47.24
36502;BME280;25393;46.108;3.390;2022-07-29T09:38:33;97980.09;;;28.21;44.76
36502;BME280;25393;46.108;3.390;2022-07-29T09:41:03;97985.66;;;28.40;44.03
36502;BME280;25393;46.108;3.390;2022-07-29T09:43:32;97973.81;;;28.54;42.98
36502;BME280;25393;46.108;3.390;2022-07-29T09:46:11;97974.78;;;29.02;41.34
36502;BME280;25393;46.108;3.390;2022-07-29T09:48:38;97980.19;;;29.55;40.63
36502;BME280;25393;46.108;3.390;2022-07-29T09:51:16;97978.03;;;30.50;38.88
36502;BME280;25393;46.108;3.390;2022-07-29T09:53:46;97972.72;;;31.18;37.91
36502;BME280;25393;46.108;3.390;2022-07-29T09:56:13;97964.00;;;31.30;38.06
36502;BME280;25393;46.108;3.390;2022-07-29T09:58:40;97968.25;;;31.36;36.47
36502;BME280;25393;46.108;3.390;2022-07-29T10:01:07;97959.53;;;31.48;36.06
36502;BME280;25393;46.108;3.390;2022-07-29T10:03:53;97954.56;;;31.23;36.33
36502;BME280;25393;46.108;3.390;2022-07-29T10:06:19;97970.63;;;30.83;35.85
36502;BME280;25393;46.108;3.390;2022-07-29T10:08:47;97982.41;;;30.65;37.18
36502;BME280;25393;46.108;3.390;2022-07-29T10:11:17;97975.66;;;31.08;37.55
36502;BME280;25393;46.108;3.390;2022-07-29T10:13:45;97979.63;;;31.84;37.03
36502;BME280;25393;46.108;3.390;2022-07-29T10:16:13;97973.69;;;32.27;35.24
36502;BME280;25393;46.108;3.390;2022-07-29T10:18:42;97973.78;;;31.99;35.79
36502;BME280;25393;46.108;3.390;2022-07-29T10:21:10;97974.53;;;31.50;36.93
36502;BME280;25393;46.108;3.390;2022-07-29T10:23:58;97979.44;;;30.94;37.32
36502;BME280;25393;46.108;3.390;2022-07-29T10:26:28;97994.31;;;31.34;37.82
36502;BME280;25393;46.108;3.390;2022-07-29T10:28:56;97971.41;;;32.20;37.09
36502;BME280;25393;46.108;3.390;2022-07-29T10:31:29;97980.69;;;33.30;34.80
36502;BME280;25393;46.108;3.390;2022-07-29T10:40:06;97978.44;;;34.92;31.62
36502;BME280;25393;46.108;3.390;2022-07-29T10:43:00;97981.25;;;35.59;31.24
36502;BME280;25393;46.108;3.390;2022-07-29T10:45:34;97977.75;;;36.09;31.10
36502;BME280;25393;46.108;3.390;2022-07-29T10:48:04;97969.94;;;36.31;31.23
36502;BME280;25393;46.108;3.390;2022-07-29T10:53:23;97962.03;;;36.42;30.74
36502;BME280;25393;46.108;3.390;2022-07-29T10:55:53;97975.44;;;36.31;30.37
36502;BME280;25393;46.108;3.390;2022-07-29T10:58:22;97970.88;;;36.56;30.59
36502;BME280;25393;46.108;3.390;2022-07-29T11:00:52;97971.28;;;37.24;29.48
36502;BME280;25393;46.108;3.390;2022-07-29T11:06:16;97988.75;;;37.03;28.65
36502;BME280;25393;46.108;3.390;2022-07-29T11:09:18;97987.88;;;37.12;28.27
36502;BME280;25393;46.108;3.390;2022-07-29T11:12:00;97975.81;;;37.53;27.68
36502;BME280;25393;46.108;3.390;2022-07-29T11:14:59;97981.88;;;37.22;27.02
36502;BME280;25393;46.108;3.390;2022-07-29T11:17:28;97965.66;;;37.20;28.00
36502;BME280;25393;46.108;3.390;2022-07-29T11:28:50;97963.59;;;37.66;26.43
36502;BME280;25393;46.108;3.390;2022-07-29T11:34:22;97971.22;;;35.54;27.58
36502;BME280;25393;46.108;3.390;2022-07-29T11:39:41;97974.13;;;34.22;28.15
36502;BME280;25393;46.108;3.390;2022-07-29T11:44:59;97972.47;;;33.08;28.39
36502;BME280;25393;46.108;3.390;2022-07-29T11:47:49;97961.63;;;32.28;28.57
36502;BME280;25393;46.108;3.390;2022-07-29T11:50:28;97968.03;;;31.87;29.91
36502;BME280;25393;46.108;3.390;2022-07-29T11:52:55;97973.44;;;31.65;30.66
36502;BME280;25393;46.108;3.390;2022-07-29T11:55:23;97949.63;;;31.52;31.09
36502;BME280;25393;46.108;3.390;2022-07-29T11:58:00;97969.03;;;32.27;30.00
36502;BME280;25393;46.108;3.390;2022-07-29T12:00:40;97978.59;;;32.74;29.51
36502;BME280;25393;46.108;3.390;2022-07-29T12:03:09;97974.31;;;32.90;28.91
36502;BME280;25393;46.108;3.390;2022-07-29T12:05:42;97957.53;;;33.14;28.91
36502;BME280;25393;46.108;3.390;2022-07-29T12:08:21;97964.41;;;34.25;28.41
36502;BME280;25393;46.108;3.390;2022-07-29T12:10:50;97960.63;;;34.89;26.67
36502;BME280;25393;46.108;3.390;2022-07-29T12:13:20;97966.19;;;34.72;27.27
36502;BME280;25393;46.108;3.390;2022-07-29T12:15:55;97969.41;;;34.05;28.06
36502;BME280;25393;46.108;3.390;2022-07-29T12:18:25;97971.69;;;33.38;28.08
36502;BME280;25393;46.108;3.390;2022-07-29T12:21:00;97959.31;;;32.88;28.76
36502;BME280;25393;46.108;3.390;2022-07-29T12:23:33;97973.88;;;32.66;29.26
36502;BME280;25393;46.108;3.390;2022-07-29T12:26:04;97953.03;;;32.21;29.59
36502;BME280;25393;46.108;3.390;2022-07-29T12:28:37;97956.63;;;32.07;30.33
36502;BME280;25393;46.108;3.390;2022-07-29T12:31:04;97954.25;;;31.79;30.00
36502;BME280;25393;46.108;3.390;2022-07-29T12:33:33;97958.09;;;31.50;29.74
36502;BME280;25393;46.108;3.390;2022-07-29T12:36:02;97957.31;;;31.09;30.93
36502;BME280;25393;46.108;3.390;2022-07-29T12:38:40;97966.53;;;30.67;31.30
36502;BME280;25393;46.108;3.390;2022-07-29T12:41:07;97978.16;;;30.40;31.42
36502;BME280;25393;46.108;3.390;2022-07-29T12:43:33;97977.47;;;29.97;32.17
36502;BME280;25393;46.108;3.390;2022-07-29T12:46:12;97986.69;;;29.59;32.77
36502;BME280;25393;46.108;3.390;2022-07-29T12:48:42;97986.53;;;29.27;33.49
36502;BME280;25393;46.108;3.390;2022-07-29T12:51:10;97985.91;;;29.06;33.43
36502;BME280;25393;46.108;3.390;2022-07-29T12:53:38;97993.50;;;28.85;34.05
36502;BME280;25393;46.108;3.390;2022-07-29T12:56:15;97992.22;;;28.72;33.99
36502;BME280;25393;46.108;3.390;2022-07-29T12:59:16;97989.59;;;28.57;34.61
36502;BME280;25393;46.108;3.390;2022-07-29T13:01:44;97989.44;;;28.44;34.77
36502;BME280;25393;46.108;3.390;2022-07-29T13:04:27;97977.97;;;28.13;35.48
36502;BME280;25393;46.108;3.390;2022-07-29T13:07:13;97979.41;;;28.00;35.74
36502;BME280;25393;46.108;3.390;2022-07-29T13:09:44;97999.78;;;28.08;36.54
36502;BME280;25393;46.108;3.390;2022-07-29T13:12:14;97984.03;;;27.95;36.89
36502;BME280;25393;46.108;3.390;2022-07-29T13:14:46;98005.22;;;28.13;36.50
36502;BME280;25393;46.108;3.390;2022-07-29T13:17:18;98003.22;;;28.28;36.93
36502;BME280;25393;46.108;3.390;2022-07-29T13:19:50;98004.22;;;28.71;36.38
36502;BME280;25393;46.108;3.390;2022-07-29T13:22:20;98000.66;;;29.05;36.22
36502;BME280;25393;46.108;3.390;2022-07-29T13:24:58;98006.97;;;29.24;35.28
36502;BME280;25393;46.108;3.390;2022-07-29T13:27:26;97987.00;;;29.34;35.35
36502;BME280;25393;46.108;3.390;2022-07-29T13:29:55;98000.91;;;29.56;34.78
36502;BME280;25393;46.108;3.390;2022-07-29T13:32:27;98002.63;;;29.70;34.65
36502;BME280;25393;46.108;3.390;2022-07-29T13:34:59;97990.63;;;29.71;34.30
36502;BME280;25393;46.108;3.390;2022-07-29T13:37:31;98001.59;;;29.90;34.86
36502;BME280;25393;46.108;3.390;2022-07-29T13:40:01;97989.91;;;29.85;34.35
36502;BME280;25393;46.108;3.390;2022-07-29T13:42:29;97995.69;;;29.59;32.92
36502;BME280;25393;46.108;3.390;2022-07-29T13:44:56;98012.22;;;29.68;34.18
36502;BME280;25393;46.108;3.390;2022-07-29T13:47:23;98004.84;;;29.68;34.11
36502;BME280;25393;46.108;3.390;2022-07-29T13:49:59;98012.13;;;29.54;34.36
36502;BME280;25393;46.108;3.390;2022-07-29T13:52:26;98013.81;;;29.50;34.77
36502;BME280;25393;46.108;3.390;2022-07-29T13:54:53;98007.53;;;29.50;34.32
36502;BME280;25393;46.108;3.390;2022-07-29T13:57:20;98011.38;;;29.49;34.25
36502;BME280;25393;46.108;3.390;2022-07-29T13:59:46;98008.19;;;29.42;34.36